メインページ
METAR-TAF:

METAR-TAF

空港 :

オタワ・マクドナルド・カルティエ国際空港

オタワ, オンタリオ州, カナダ

緯度: 45-19N, 経度: 075-40W, 海抜: 116m

現時点の気象観測

当レポートは41分前の06:00(UTC)に作成
東/北東の風 5kt
気温 4°C
湿度 75%
気圧 1017 hPa
視程: 24.1km
高度4500ftの雲はほとんどない
高度7500ftの千切れ雲あり

METAR: CYOW 040600Z 07005KT 15SM FEW045 BKN075 04/00 A3002 RMK SC1AC3 SLP172

時間: 02:41 (06:41 UTC)

予報

当レポートは1時間3分前の05:38(UTC)に作成
予報は04日の 06時(UTC)から 05日の 06時(UTC)まで有効
東/北東の風 12kt
視程: 10km
高度4000ftの千切れ雲あり
04日の 06時(UTC)から 04日の 15時(UTC)まで一時的に
高度2000ftの千切れ雲あり
高度5000ftの曇り
確率 30%
04日の 09時(UTC)から 04日の 13時(UTC)まで
高度800ftの曇り
04日の 1500時(UTC)から
東/北東の風 6kt
視程: 10km
高度1500ftの雲はほとんどない
高度4000ftの雲は散在している
04日の 2200時(UTC)から
の風 6kt
視程: 10km
高度2000ftの雲はほとんどない
高度4000ftの千切れ雲あり
高度10000ftの千切れ雲あり
05日の 0500時(UTC)から
の風 6kt
視程: 10km
高度3000ftの曇り
弱いにわか雨

TAF: CYOW 040538Z 0406/0506 07012KT P6SM BKN040 TEMPO 0406/0415 BKN020 OVC050 PROB30 0409/0413 OVC008 FM041500 07006KT P6SM FEW015 SCT040 FM042200 09006KT P6SM FEW020 BKN040 BKN100 FM050500 10006KT P6SM -SHRA OVC030 RMK NXT FCST BY 040900Z

4,000以上の空港の気象観測と天気予報(METAR報とTAF報)

利用可能な観測所は地図上に黄色い丸と赤い丸で示す。

丸の上にカーソルを重ねると観測所名を参照できる。

次にクリックすると気象観測と天気予報を参照できる。

マップの切り替え:黒色「×」印の緑ボタンをクリックして拡大、「-」印の緑ボタンをクリックして縮小、緑色の三角印をクリックして隣りの地図に切り替え


METAR-TAF: